TimeCDT,TemperatureF,Dew PointF,Humidity,Sea Level PressureIn,VisibilityMPH,Wind Direction,Wind SpeedMPH,Gust SpeedMPH,PrecipitationIn,Events,Conditions,WindDirDegrees,DateUTC
12:53 AM,73.9,71.1,91,29.68,9.0,SE,6.9,-,N/A,,Clear,130,2013-06-26 05:53:00
1:53 AM,72.0,70.0,93,29.68,6.0,SE,3.5,-,N/A,,Clear,140,2013-06-26 06:53:00
2:53 AM,72.0,71.1,97,29.67,5.0,ESE,4.6,-,N/A,,Clear,120,2013-06-26 07:53:00
3:53 AM,71.1,70.0,96,29.68,3.0,SE,3.5,-,N/A,,Scattered Clouds,130,2013-06-26 08:53:00
4:53 AM,71.1,70.0,96,29.68,3.0,Variable,4.6,-,N/A,,Scattered Clouds,0,2013-06-26 09:53:00
5:20 AM,71.6,69.8,94,29.68,2.0,Calm,Calm,-,N/A,,Clear,0,2013-06-26 10:20:00
5:42 AM,69.8,69.8,100,29.67,0.8,Calm,Calm,-,N/A,,Clear,0,2013-06-26 10:42:00
5:53 AM,70.0,70.0,100,29.68,1.2,Calm,Calm,-,N/A,,Clear,0,2013-06-26 10:53:00
6:34 AM,71.6,71.6,100,29.70,3.0,WSW,10.4,-,N/A,,Partly Cloudy,250,2013-06-26 11:34:00
6:53 AM,73.0,71.1,93,29.66,6.0,ESE,4.6,-,N/A,,Partly Cloudy,110,2013-06-26 11:53:00
7:53 AM,73.9,72.0,93,29.67,7.0,SW,5.8,-,N/A,,Clear,230,2013-06-26 12:53:00
8:53 AM,75.0,70.0,84,29.68,10.0,West,4.6,-,N/A,,Clear,260,2013-06-26 13:53:00
9:53 AM,78.1,68.0,71,29.71,10.0,WNW,10.4,-,N/A,,Clear,290,2013-06-26 14:53:00
10:53 AM,81.0,66.0,60,29.73,10.0,NW,8.1,-,N/A,,Clear,310,2013-06-26 15:53:00
11:53 AM,82.0,64.9,56,29.72,10.0,WSW,6.9,-,N/A,,Clear,250,2013-06-26 16:53:00
12:53 PM,84.9,68.0,57,29.71,10.0,West,13.8,-,N/A,,Clear,280,2013-06-26 17:53:00
1:53 PM,84.0,66.9,56,29.71,10.0,WNW,16.1,23.0,N/A,,Scattered Clouds,300,2013-06-26 18:53:00
2:53 PM,82.9,66.9,58,29.73,10.0,NW,13.8,23.0,N/A,,Mostly Cloudy,310,2013-06-26 19:53:00
3:53 PM,84.9,64.9,51,29.74,10.0,WNW,16.1,24.2,N/A,,Scattered Clouds,300,2013-06-26 20:53:00
4:53 PM,84.0,64.0,51,29.74,10.0,NW,13.8,21.9,N/A,,Partly Cloudy,320,2013-06-26 21:53:00
5:53 PM,82.9,64.0,53,29.75,10.0,NW,13.8,-,N/A,,Clear,310,2013-06-26 22:53:00
6:53 PM,82.0,64.0,54,29.77,10.0,NW,12.7,-,N/A,,Clear,310,2013-06-26 23:53:00
7:53 PM,78.1,64.0,62,29.78,10.0,NW,8.1,-,N/A,,Clear,320,2013-06-27 00:53:00
8:53 PM,75.0,62.1,64,29.79,10.0,WNW,6.9,-,N/A,,Clear,300,2013-06-27 01:53:00
9:53 PM,73.0,62.1,68,29.81,10.0,NW,5.8,-,N/A,,Clear,310,2013-06-27 02:53:00
10:53 PM,69.1,64.0,84,29.82,10.0,Calm,Calm,-,N/A,,Clear,0,2013-06-27 03:53:00
11:53 PM,69.1,64.0,84,29.82,10.0,South,3.5,-,N/A,,Clear,190,2013-06-27 04:53:00